sensor_id;sensor_type;location;lat;lon;timestamp;P1;durP1;ratioP1;P2;durP2;ratioP2
51292;SDS011;37377;45.186;9.778;2023-03-21T00:00:28;98.10;;;75.43;;
51292;SDS011;37377;45.186;9.778;2023-03-21T00:02:55;107.88;;;82.13;;
51292;SDS011;37377;45.186;9.778;2023-03-21T00:05:22;103.43;;;80.18;;
51292;SDS011;37377;45.186;9.778;2023-03-21T00:07:49;103.00;;;80.22;;
51292;SDS011;37377;45.186;9.778;2023-03-21T00:10:17;107.93;;;82.85;;
51292;SDS011;37377;45.186;9.778;2023-03-21T00:13:03;108.95;;;83.88;;
51292;SDS011;37377;45.186;9.778;2023-03-21T00:15:31;97.00;;;78.32;;
51292;SDS011;37377;45.186;9.778;2023-03-21T00:18:21;96.85;;;76.88;;
51292;SDS011;37377;45.186;9.778;2023-03-21T00:20:58;101.03;;;78.13;;
51292;SDS011;37377;45.186;9.778;2023-03-21T00:23:45;92.95;;;73.93;;
51292;SDS011;37377;45.186;9.778;2023-03-21T00:26:13;100.30;;;79.55;;
51292;SDS011;37377;45.186;9.778;2023-03-21T00:28:41;97.43;;;79.30;;
51292;SDS011;37377;45.186;9.778;2023-03-21T00:31:08;107.03;;;80.75;;
51292;SDS011;37377;45.186;9.778;2023-03-21T00:33:35;103.15;;;80.70;;
51292;SDS011;37377;45.186;9.778;2023-03-21T00:36:05;94.35;;;74.80;;
51292;SDS011;37377;45.186;9.778;2023-03-21T00:38:33;84.85;;;69.53;;
51292;SDS011;37377;45.186;9.778;2023-03-21T00:41:04;74.63;;;62.65;;
51292;SDS011;37377;45.186;9.778;2023-03-21T00:43:49;67.10;;;53.30;;
51292;SDS011;37377;45.186;9.778;2023-03-21T00:46:17;65.65;;;52.38;;
51292;SDS011;37377;45.186;9.778;2023-03-21T00:48:47;65.35;;;54.45;;
51292;SDS011;37377;45.186;9.778;2023-03-21T00:51:17;64.93;;;53.88;;
51292;SDS011;37377;45.186;9.778;2023-03-21T00:53:47;60.20;;;47.95;;
51292;SDS011;37377;45.186;9.778;2023-03-21T00:56:13;59.97;;;49.70;;
51292;SDS011;37377;45.186;9.778;2023-03-21T00:58:41;74.07;;;58.45;;
51292;SDS011;37377;45.186;9.778;2023-03-21T01:01:07;77.68;;;64.57;;
51292;SDS011;37377;45.186;9.778;2023-03-21T01:03:35;73.30;;;59.78;;
51292;SDS011;37377;45.186;9.778;2023-03-21T01:06:10;71.85;;;59.88;;
51292;SDS011;37377;45.186;9.778;2023-03-21T01:08:40;80.30;;;63.45;;
51292;SDS011;37377;45.186;9.778;2023-03-21T01:11:20;83.40;;;64.72;;
51292;SDS011;37377;45.186;9.778;2023-03-21T01:13:47;83.43;;;67.68;;
51292;SDS011;37377;45.186;9.778;2023-03-21T01:16:25;92.72;;;70.53;;
51292;SDS011;37377;45.186;9.778;2023-03-21T01:18:52;98.38;;;71.00;;
51292;SDS011;37377;45.186;9.778;2023-03-21T01:21:18;86.43;;;68.45;;
51292;SDS011;37377;45.186;9.778;2023-03-21T01:23:46;86.97;;;67.80;;
51292;SDS011;37377;45.186;9.778;2023-03-21T01:26:13;84.47;;;65.38;;
51292;SDS011;37377;45.186;9.778;2023-03-21T01:28:43;85.07;;;68.93;;
51292;SDS011;37377;45.186;9.778;2023-03-21T01:31:12;90.63;;;69.72;;
51292;SDS011;37377;45.186;9.778;2023-03-21T01:33:39;87.57;;;70.10;;
51292;SDS011;37377;45.186;9.778;2023-03-21T01:36:06;89.28;;;72.40;;
51292;SDS011;37377;45.186;9.778;2023-03-21T01:38:42;84.13;;;70.05;;
51292;SDS011;37377;45.186;9.778;2023-03-21T01:41:28;90.70;;;70.28;;
51292;SDS011;37377;45.186;9.778;2023-03-21T01:44:16;84.65;;;68.40;;
51292;SDS011;37377;45.186;9.778;2023-03-21T01:46:45;84.75;;;67.20;;
51292;SDS011;37377;45.186;9.778;2023-03-21T01:49:46;87.72;;;69.30;;
51292;SDS011;37377;45.186;9.778;2023-03-21T01:52:31;94.68;;;69.85;;
51292;SDS011;37377;45.186;9.778;2023-03-21T01:55:10;83.85;;;71.38;;
51292;SDS011;37377;45.186;9.778;2023-03-21T01:58:00;92.22;;;75.10;;
51292;SDS011;37377;45.186;9.778;2023-03-21T02:00:43;87.32;;;72.47;;
51292;SDS011;37377;45.186;9.778;2023-03-21T02:03:25;92.57;;;70.68;;
51292;SDS011;37377;45.186;9.778;2023-03-21T02:06:27;86.70;;;70.40;;
51292;SDS011;37377;45.186;9.778;2023-03-21T02:09:05;83.82;;;66.20;;
51292;SDS011;37377;45.186;9.778;2023-03-21T02:11:34;80.50;;;66.35;;
51292;SDS011;37377;45.186;9.778;2023-03-21T02:14:03;77.68;;;62.50;;
51292;SDS011;37377;45.186;9.778;2023-03-21T02:27:01;72.75;;;60.45;;
51292;SDS011;37377;45.186;9.778;2023-03-21T02:40:37;84.25;;;68.47;;
51292;SDS011;37377;45.186;9.778;2023-03-21T02:43:12;86.40;;;69.97;;
51292;SDS011;37377;45.186;9.778;2023-03-21T02:48:36;82.63;;;70.82;;
51292;SDS011;37377;45.186;9.778;2023-03-21T02:51:17;90.82;;;71.57;;
51292;SDS011;37377;45.186;9.778;2023-03-21T02:53:46;87.93;;;69.13;;
51292;SDS011;37377;45.186;9.778;2023-03-21T02:56:25;82.05;;;65.00;;
51292;SDS011;37377;45.186;9.778;2023-03-21T02:58:54;84.07;;;63.50;;
51292;SDS011;37377;45.186;9.778;2023-03-21T03:01:22;77.88;;;64.18;;
51292;SDS011;37377;45.186;9.778;2023-03-21T03:03:52;81.63;;;67.93;;
51292;SDS011;37377;45.186;9.778;2023-03-21T03:06:44;82.32;;;69.53;;
51292;SDS011;37377;45.186;9.778;2023-03-21T03:11:46;80.55;;;66.18;;
51292;SDS011;37377;45.186;9.778;2023-03-21T03:22:24;71.78;;;58.05;;
51292;SDS011;37377;45.186;9.778;2023-03-21T03:24:57;70.70;;;54.85;;
51292;SDS011;37377;45.186;9.778;2023-03-21T03:27:40;71.18;;;56.80;;
51292;SDS011;37377;45.186;9.778;2023-03-21T03:30:09;66.75;;;57.15;;
51292;SDS011;37377;45.186;9.778;2023-03-21T03:32:39;67.38;;;56.60;;
51292;SDS011;37377;45.186;9.778;2023-03-21T03:35:11;66.95;;;55.55;;
51292;SDS011;37377;45.186;9.778;2023-03-21T03:37:39;72.93;;;60.17;;
51292;SDS011;37377;45.186;9.778;2023-03-21T03:40:07;52.72;;;32.60;;
51292;SDS011;37377;45.186;9.778;2023-03-21T03:45:19;54.47;;;31.42;;
51292;SDS011;37377;45.186;9.778;2023-03-21T03:48:04;57.03;;;34.20;;
51292;SDS011;37377;45.186;9.778;2023-03-21T03:53:18;73.95;;;44.92;;
51292;SDS011;37377;45.186;9.778;2023-03-21T03:55:48;86.97;;;69.22;;
51292;SDS011;37377;45.186;9.778;2023-03-21T03:58:19;83.78;;;68.03;;
51292;SDS011;37377;45.186;9.778;2023-03-21T04:00:53;87.50;;;72.65;;
51292;SDS011;37377;45.186;9.778;2023-03-21T04:03:22;81.07;;;65.95;;
51292;SDS011;37377;45.186;9.778;2023-03-21T04:05:50;70.75;;;59.67;;
51292;SDS011;37377;45.186;9.778;2023-03-21T04:08:17;68.53;;;59.00;;
51292;SDS011;37377;45.186;9.778;2023-03-21T04:10:50;76.75;;;61.75;;
51292;SDS011;37377;45.186;9.778;2023-03-21T04:13:18;72.57;;;63.10;;
51292;SDS011;37377;45.186;9.778;2023-03-21T04:16:05;85.47;;;71.60;;
51292;SDS011;37377;45.186;9.778;2023-03-21T04:18:33;85.45;;;72.07;;
51292;SDS011;37377;45.186;9.778;2023-03-21T04:21:00;67.18;;;42.42;;
51292;SDS011;37377;45.186;9.778;2023-03-21T04:23:28;77.60;;;43.03;;
51292;SDS011;37377;45.186;9.778;2023-03-21T04:25:55;105.22;;;88.55;;
51292;SDS011;37377;45.186;9.778;2023-03-21T04:28:35;95.43;;;51.08;;
51292;SDS011;37377;45.186;9.778;2023-03-21T04:31:21;85.95;;;50.25;;
51292;SDS011;37377;45.186;9.778;2023-03-21T04:34:03;83.32;;;50.28;;
51292;SDS011;37377;45.186;9.778;2023-03-21T04:36:38;97.10;;;52.92;;
51292;SDS011;37377;45.186;9.778;2023-03-21T04:39:08;115.07;;;88.47;;
51292;SDS011;37377;45.186;9.778;2023-03-21T04:41:39;110.03;;;86.72;;
51292;SDS011;37377;45.186;9.778;2023-03-21T04:44:06;120.07;;;90.50;;
51292;SDS011;37377;45.186;9.778;2023-03-21T04:46:35;101.43;;;82.90;;
51292;SDS011;37377;45.186;9.778;2023-03-21T04:49:02;102.53;;;81.82;;
51292;SDS011;37377;45.186;9.778;2023-03-21T04:51:29;105.03;;;81.60;;
51292;SDS011;37377;45.186;9.778;2023-03-21T04:53:56;83.43;;;46.95;;
51292;SDS011;37377;45.186;9.778;2023-03-21T04:56:24;96.18;;;46.20;;
51292;SDS011;37377;45.186;9.778;2023-03-21T04:58:57;110.68;;;81.07;;
51292;SDS011;37377;45.186;9.778;2023-03-21T05:01:24;99.18;;;81.25;;
51292;SDS011;37377;45.186;9.778;2023-03-21T05:04:00;81.45;;;47.85;;
51292;SDS011;37377;45.186;9.778;2023-03-21T05:08:59;80.63;;;45.63;;
51292;SDS011;37377;45.186;9.778;2023-03-21T05:11:28;114.32;;;90.10;;
51292;SDS011;37377;45.186;9.778;2023-03-21T05:13:58;112.75;;;89.90;;
51292;SDS011;37377;45.186;9.778;2023-03-21T05:16:25;108.90;;;89.03;;
51292;SDS011;37377;45.186;9.778;2023-03-21T05:18:56;93.15;;;51.90;;
51292;SDS011;37377;45.186;9.778;2023-03-21T05:21:25;94.20;;;51.67;;
51292;SDS011;37377;45.186;9.778;2023-03-21T05:23:56;119.07;;;88.65;;
51292;SDS011;37377;45.186;9.778;2023-03-21T05:26:24;111.88;;;90.28;;
51292;SDS011;37377;45.186;9.778;2023-03-21T05:28:58;108.72;;;90.60;;
51292;SDS011;37377;45.186;9.778;2023-03-21T05:31:25;126.93;;;93.38;;
51292;SDS011;37377;45.186;9.778;2023-03-21T05:34:03;113.43;;;92.43;;
51292;SDS011;37377;45.186;9.778;2023-03-21T05:36:30;112.72;;;90.82;;
51292;SDS011;37377;45.186;9.778;2023-03-21T05:39:00;116.22;;;92.45;;
51292;SDS011;37377;45.186;9.778;2023-03-21T05:41:29;118.22;;;91.30;;
51292;SDS011;37377;45.186;9.778;2023-03-21T05:43:57;113.40;;;89.10;;
51292;SDS011;37377;45.186;9.778;2023-03-21T05:46:24;112.45;;;87.13;;
51292;SDS011;37377;45.186;9.778;2023-03-21T05:48:52;113.63;;;85.45;;
51292;SDS011;37377;45.186;9.778;2023-03-21T05:51:20;109.72;;;82.97;;
51292;SDS011;37377;45.186;9.778;2023-03-21T05:53:47;110.15;;;84.35;;
51292;SDS011;37377;45.186;9.778;2023-03-21T05:56:15;104.50;;;82.22;;
51292;SDS011;37377;45.186;9.778;2023-03-21T05:58:50;100.22;;;77.18;;
51292;SDS011;37377;45.186;9.778;2023-03-21T06:01:18;83.80;;;65.88;;
51292;SDS011;37377;45.186;9.778;2023-03-21T06:03:54;83.07;;;64.93;;
51292;SDS011;37377;45.186;9.778;2023-03-21T06:06:23;82.78;;;61.20;;
51292;SDS011;37377;45.186;9.778;2023-03-21T06:08:53;73.18;;;58.00;;
51292;SDS011;37377;45.186;9.778;2023-03-21T06:11:25;71.10;;;54.80;;
51292;SDS011;37377;45.186;9.778;2023-03-21T06:14:15;66.90;;;52.15;;
51292;SDS011;37377;45.186;9.778;2023-03-21T06:16:44;69.97;;;50.65;;
51292;SDS011;37377;45.186;9.778;2023-03-21T06:19:11;61.03;;;47.65;;
51292;SDS011;37377;45.186;9.778;2023-03-21T06:21:55;74.68;;;47.60;;
51292;SDS011;37377;45.186;9.778;2023-03-21T06:24:22;62.35;;;47.08;;
51292;SDS011;37377;45.186;9.778;2023-03-21T06:26:48;58.78;;;46.35;;
51292;SDS011;37377;45.186;9.778;2023-03-21T06:29:16;69.32;;;45.10;;
51292;SDS011;37377;45.186;9.778;2023-03-21T06:31:46;59.95;;;44.75;;
51292;SDS011;37377;45.186;9.778;2023-03-21T06:34:14;59.70;;;46.13;;
51292;SDS011;37377;45.186;9.778;2023-03-21T06:36:41;56.90;;;42.95;;
51292;SDS011;37377;45.186;9.778;2023-03-21T06:39:12;64.10;;;43.58;;
51292;SDS011;37377;45.186;9.778;2023-03-21T06:41:39;63.08;;;43.13;;
51292;SDS011;37377;45.186;9.778;2023-03-21T06:44:06;57.58;;;43.67;;
51292;SDS011;37377;45.186;9.778;2023-03-21T06:46:42;58.80;;;42.60;;
51292;SDS011;37377;45.186;9.778;2023-03-21T06:49:11;51.90;;;40.88;;
51292;SDS011;37377;45.186;9.778;2023-03-21T06:51:38;62.70;;;41.33;;
51292;SDS011;37377;45.186;9.778;2023-03-21T06:54:13;50.65;;;38.17;;
51292;SDS011;37377;45.186;9.778;2023-03-21T06:56:49;51.08;;;38.80;;
51292;SDS011;37377;45.186;9.778;2023-03-21T06:59:22;53.95;;;38.25;;
51292;SDS011;37377;45.186;9.778;2023-03-21T07:02:09;61.50;;;38.67;;
51292;SDS011;37377;45.186;9.778;2023-03-21T07:04:41;54.10;;;37.72;;
51292;SDS011;37377;45.186;9.778;2023-03-21T07:07:14;57.67;;;36.88;;
51292;SDS011;37377;45.186;9.778;2023-03-21T07:09:41;83.78;;;37.90;;
51292;SDS011;37377;45.186;9.778;2023-03-21T07:12:09;69.68;;;37.08;;
51292;SDS011;37377;45.186;9.778;2023-03-21T07:14:55;57.65;;;35.65;;
51292;SDS011;37377;45.186;9.778;2023-03-21T07:17:22;58.05;;;35.72;;
51292;SDS011;37377;45.186;9.778;2023-03-21T07:19:49;55.38;;;34.80;;
51292;SDS011;37377;45.186;9.778;2023-03-21T07:22:17;56.33;;;36.70;;
51292;SDS011;37377;45.186;9.778;2023-03-21T07:24:44;56.42;;;35.05;;
51292;SDS011;37377;45.186;9.778;2023-03-21T07:27:24;59.83;;;36.90;;
51292;SDS011;37377;45.186;9.778;2023-03-21T07:29:52;50.85;;;36.20;;
51292;SDS011;37377;45.186;9.778;2023-03-21T07:32:18;51.00;;;34.28;;
51292;SDS011;37377;45.186;9.778;2023-03-21T07:34:46;55.22;;;36.22;;
51292;SDS011;37377;45.186;9.778;2023-03-21T07:37:12;47.90;;;37.15;;
51292;SDS011;37377;45.186;9.778;2023-03-21T07:39:39;50.70;;;35.53;;
51292;SDS011;37377;45.186;9.778;2023-03-21T07:42:06;52.15;;;35.10;;
51292;SDS011;37377;45.186;9.778;2023-03-21T07:44:37;50.15;;;36.10;;
51292;SDS011;37377;45.186;9.778;2023-03-21T07:47:05;49.17;;;33.83;;
51292;SDS011;37377;45.186;9.778;2023-03-21T07:49:32;53.03;;;35.55;;
51292;SDS011;37377;45.186;9.778;2023-03-21T07:51:59;48.35;;;35.10;;
51292;SDS011;37377;45.186;9.778;2023-03-21T07:54:30;48.33;;;35.03;;
51292;SDS011;37377;45.186;9.778;2023-03-21T07:56:58;47.45;;;35.22;;
51292;SDS011;37377;45.186;9.778;2023-03-21T07:59:25;44.40;;;34.67;;
51292;SDS011;37377;45.186;9.778;2023-03-21T08:01:52;46.05;;;33.50;;
51292;SDS011;37377;45.186;9.778;2023-03-21T08:04:20;53.33;;;33.13;;
51292;SDS011;37377;45.186;9.778;2023-03-21T08:06:49;47.20;;;35.03;;
51292;SDS011;37377;45.186;9.778;2023-03-21T08:09:15;49.90;;;34.55;;
51292;SDS011;37377;45.186;9.778;2023-03-21T08:11:42;43.50;;;34.47;;
51292;SDS011;37377;45.186;9.778;2023-03-21T08:14:09;49.63;;;34.03;;
51292;SDS011;37377;45.186;9.778;2023-03-21T08:16:36;49.08;;;34.78;;
51292;SDS011;37377;45.186;9.778;2023-03-21T08:19:03;44.65;;;31.73;;
51292;SDS011;37377;45.186;9.778;2023-03-21T08:21:29;42.17;;;33.83;;
51292;SDS011;37377;45.186;9.778;2023-03-21T08:23:56;57.53;;;35.22;;
51292;SDS011;37377;45.186;9.778;2023-03-21T08:26:23;54.42;;;35.60;;
51292;SDS011;37377;45.186;9.778;2023-03-21T08:28:52;58.88;;;36.00;;
51292;SDS011;37377;45.186;9.778;2023-03-21T08:31:19;53.92;;;36.35;;
51292;SDS011;37377;45.186;9.778;2023-03-21T08:33:47;60.85;;;35.95;;
51292;SDS011;37377;45.186;9.778;2023-03-21T08:36:19;63.17;;;36.92;;
51292;SDS011;37377;45.186;9.778;2023-03-21T08:38:47;67.05;;;37.63;;
51292;SDS011;37377;45.186;9.778;2023-03-21T08:41:14;55.78;;;35.92;;
51292;SDS011;37377;45.186;9.778;2023-03-21T08:43:41;53.67;;;35.63;;
51292;SDS011;37377;45.186;9.778;2023-03-21T08:46:08;50.53;;;36.40;;
51292;SDS011;37377;45.186;9.778;2023-03-21T08:48:35;50.10;;;39.33;;
51292;SDS011;37377;45.186;9.778;2023-03-21T08:51:04;70.75;;;38.53;;
51292;SDS011;37377;45.186;9.778;2023-03-21T08:53:32;58.08;;;38.65;;
51292;SDS011;37377;45.186;9.778;2023-03-21T08:55:59;52.35;;;38.35;;
51292;SDS011;37377;45.186;9.778;2023-03-21T08:58:26;64.22;;;40.28;;
51292;SDS011;37377;45.186;9.778;2023-03-21T09:00:54;56.60;;;37.83;;
51292;SDS011;37377;45.186;9.778;2023-03-21T09:03:22;62.03;;;39.95;;
51292;SDS011;37377;45.186;9.778;2023-03-21T09:05:51;53.25;;;40.95;;
51292;SDS011;37377;45.186;9.778;2023-03-21T09:08:19;61.70;;;42.40;;
51292;SDS011;37377;45.186;9.778;2023-03-21T09:10:52;60.42;;;42.10;;
51292;SDS011;37377;45.186;9.778;2023-03-21T09:13:20;56.45;;;41.55;;
51292;SDS011;37377;45.186;9.778;2023-03-21T09:15:47;55.58;;;41.42;;
51292;SDS011;37377;45.186;9.778;2023-03-21T09:18:14;61.85;;;42.42;;
51292;SDS011;37377;45.186;9.778;2023-03-21T09:20:44;54.00;;;41.55;;
51292;SDS011;37377;45.186;9.778;2023-03-21T09:23:12;60.78;;;40.90;;
51292;SDS011;37377;45.186;9.778;2023-03-21T09:25:41;57.92;;;42.40;;
51292;SDS011;37377;45.186;9.778;2023-03-21T09:28:12;55.08;;;41.55;;
51292;SDS011;37377;45.186;9.778;2023-03-21T09:30:40;65.80;;;43.55;;
51292;SDS011;37377;45.186;9.778;2023-03-21T09:33:07;61.28;;;45.28;;
51292;SDS011;37377;45.186;9.778;2023-03-21T09:35:35;88.22;;;45.55;;
51292;SDS011;37377;45.186;9.778;2023-03-21T09:38:03;91.38;;;46.83;;
51292;SDS011;37377;45.186;9.778;2023-03-21T09:48:33;63.22;;;41.70;;
51292;SDS011;37377;45.186;9.778;2023-03-21T09:51:08;60.05;;;42.40;;
51292;SDS011;37377;45.186;9.778;2023-03-21T09:53:37;55.35;;;42.65;;
51292;SDS011;37377;45.186;9.778;2023-03-21T09:56:07;61.70;;;44.33;;
51292;SDS011;37377;45.186;9.778;2023-03-21T09:58:40;58.25;;;43.40;;
51292;SDS011;37377;45.186;9.778;2023-03-21T10:03:36;63.38;;;45.83;;
51292;SDS011;37377;45.186;9.778;2023-03-21T10:06:04;59.35;;;47.42;;
51292;SDS011;37377;45.186;9.778;2023-03-21T10:08:34;62.60;;;45.95;;
51292;SDS011;37377;45.186;9.778;2023-03-21T10:11:05;89.20;;;45.40;;
51292;SDS011;37377;45.186;9.778;2023-03-21T10:13:34;66.15;;;46.60;;
51292;SDS011;37377;45.186;9.778;2023-03-21T10:16:11;67.95;;;48.10;;
51292;SDS011;37377;45.186;9.778;2023-03-21T10:18:39;72.35;;;45.83;;
51292;SDS011;37377;45.186;9.778;2023-03-21T10:21:10;66.07;;;49.63;;
51292;SDS011;37377;45.186;9.778;2023-03-21T10:24:02;71.28;;;48.92;;
51292;SDS011;37377;45.186;9.778;2023-03-21T10:26:29;60.67;;;47.50;;
51292;SDS011;37377;45.186;9.778;2023-03-21T10:28:57;65.35;;;46.70;;
51292;SDS011;37377;45.186;9.778;2023-03-21T10:31:25;57.83;;;46.67;;
51292;SDS011;37377;45.186;9.778;2023-03-21T10:33:54;66.43;;;44.53;;
51292;SDS011;37377;45.186;9.778;2023-03-21T10:36:23;54.38;;;43.25;;
51292;SDS011;37377;45.186;9.778;2023-03-21T10:41:21;57.15;;;44.45;;
51292;SDS011;37377;45.186;9.778;2023-03-21T10:46:30;63.05;;;48.30;;
51292;SDS011;37377;45.186;9.778;2023-03-21T10:49:02;68.25;;;51.22;;
51292;SDS011;37377;45.186;9.778;2023-03-21T10:51:30;65.90;;;51.72;;
51292;SDS011;37377;45.186;9.778;2023-03-21T10:53:58;69.13;;;54.42;;
51292;SDS011;37377;45.186;9.778;2023-03-21T10:56:25;69.40;;;54.85;;
51292;SDS011;37377;45.186;9.778;2023-03-21T10:58:53;75.10;;;53.55;;
51292;SDS011;37377;45.186;9.778;2023-03-21T11:01:38;68.55;;;54.20;;
51292;SDS011;37377;45.186;9.778;2023-03-21T11:04:11;75.85;;;53.65;;
51292;SDS011;37377;45.186;9.778;2023-03-21T11:06:40;67.05;;;51.63;;
51292;SDS011;37377;45.186;9.778;2023-03-21T11:11:39;74.13;;;50.50;;
51292;SDS011;37377;45.186;9.778;2023-03-21T11:14:07;66.30;;;50.33;;
51292;SDS011;37377;45.186;9.778;2023-03-21T11:19:02;77.97;;;57.85;;
51292;SDS011;37377;45.186;9.778;2023-03-21T11:21:37;70.97;;;52.20;;
51292;SDS011;37377;45.186;9.778;2023-03-21T11:24:04;71.05;;;50.53;;
51292;SDS011;37377;45.186;9.778;2023-03-21T11:26:34;66.00;;;51.22;;
51292;SDS011;37377;45.186;9.778;2023-03-21T11:29:17;72.40;;;51.80;;
51292;SDS011;37377;45.186;9.778;2023-03-21T11:31:46;66.63;;;50.28;;
51292;SDS011;37377;45.186;9.778;2023-03-21T11:34:32;65.07;;;48.75;;
51292;SDS011;37377;45.186;9.778;2023-03-21T11:37:00;62.38;;;48.63;;
51292;SDS011;37377;45.186;9.778;2023-03-21T11:39:35;65.93;;;46.97;;
51292;SDS011;37377;45.186;9.778;2023-03-21T11:42:10;66.93;;;48.38;;
51292;SDS011;37377;45.186;9.778;2023-03-21T11:44:51;62.60;;;49.90;;
51292;SDS011;37377;45.186;9.778;2023-03-21T11:47:23;69.63;;;50.97;;
51292;SDS011;37377;45.186;9.778;2023-03-21T11:49:49;72.00;;;50.38;;
51292;SDS011;37377;45.186;9.778;2023-03-21T11:52:32;65.78;;;50.33;;
51292;SDS011;37377;45.186;9.778;2023-03-21T11:55:23;58.60;;;45.72;;
51292;SDS011;37377;45.186;9.778;2023-03-21T11:57:57;59.85;;;46.67;;
51292;SDS011;37377;45.186;9.778;2023-03-21T12:01:01;79.03;;;51.97;;
51292;SDS011;37377;45.186;9.778;2023-03-21T12:03:35;64.65;;;49.30;;
51292;SDS011;37377;45.186;9.778;2023-03-21T12:06:24;64.45;;;50.80;;
51292;SDS011;37377;45.186;9.778;2023-03-21T12:14:11;63.53;;;47.42;;
51292;SDS011;37377;45.186;9.778;2023-03-21T12:16:55;63.63;;;43.40;;
51292;SDS011;37377;45.186;9.778;2023-03-21T12:19:38;62.17;;;43.55;;
51292;SDS011;37377;45.186;9.778;2023-03-21T12:24:56;61.72;;;43.83;;
51292;SDS011;37377;45.186;9.778;2023-03-21T12:45:40;51.92;;;39.78;;
51292;SDS011;37377;45.186;9.778;2023-03-21T12:50:58;51.42;;;40.25;;
51292;SDS011;37377;45.186;9.778;2023-03-21T12:53:33;53.22;;;40.80;;
51292;SDS011;37377;45.186;9.778;2023-03-21T12:56:07;58.15;;;39.45;;
51292;SDS011;37377;45.186;9.778;2023-03-21T12:58:56;47.65;;;38.20;;
51292;SDS011;37377;45.186;9.778;2023-03-21T13:01:23;53.90;;;39.35;;
51292;SDS011;37377;45.186;9.778;2023-03-21T13:03:56;54.45;;;40.92;;
51292;SDS011;37377;45.186;9.778;2023-03-21T13:06:24;51.67;;;39.95;;
51292;SDS011;37377;45.186;9.778;2023-03-21T13:09:04;52.88;;;39.75;;
51292;SDS011;37377;45.186;9.778;2023-03-21T13:11:32;60.00;;;41.28;;
51292;SDS011;37377;45.186;9.778;2023-03-21T13:14:03;48.53;;;39.40;;
51292;SDS011;37377;45.186;9.778;2023-03-21T13:27:03;51.42;;;38.25;;
51292;SDS011;37377;45.186;9.778;2023-03-21T13:34:53;49.35;;;36.75;;
51292;SDS011;37377;45.186;9.778;2023-03-21T13:37:21;51.00;;;37.47;;
51292;SDS011;37377;45.186;9.778;2023-03-21T13:39:48;48.63;;;36.85;;
51292;SDS011;37377;45.186;9.778;2023-03-21T13:42:22;46.03;;;37.70;;
51292;SDS011;37377;45.186;9.778;2023-03-21T13:44:52;50.60;;;38.65;;
51292;SDS011;37377;45.186;9.778;2023-03-21T13:55:29;53.90;;;38.67;;
51292;SDS011;37377;45.186;9.778;2023-03-21T13:57:56;49.92;;;37.05;;
51292;SDS011;37377;45.186;9.778;2023-03-21T14:00:27;46.85;;;36.47;;
51292;SDS011;37377;45.186;9.778;2023-03-21T14:05:34;45.40;;;37.03;;
51292;SDS011;37377;45.186;9.778;2023-03-21T14:08:06;51.78;;;38.47;;
51292;SDS011;37377;45.186;9.778;2023-03-21T14:10:54;49.67;;;36.15;;
51292;SDS011;37377;45.186;9.778;2023-03-21T14:13:24;49.50;;;36.78;;
51292;SDS011;37377;45.186;9.778;2023-03-21T14:15:52;48.00;;;36.65;;
51292;SDS011;37377;45.186;9.778;2023-03-21T14:18:23;59.17;;;36.17;;
51292;SDS011;37377;45.186;9.778;2023-03-21T14:21:12;51.40;;;36.85;;
51292;SDS011;37377;45.186;9.778;2023-03-21T14:28:51;50.20;;;35.35;;
51292;SDS011;37377;45.186;9.778;2023-03-21T14:31:18;46.08;;;36.03;;
51292;SDS011;37377;45.186;9.778;2023-03-21T14:33:52;49.20;;;35.72;;
51292;SDS011;37377;45.186;9.778;2023-03-21T14:36:26;46.17;;;35.90;;
51292;SDS011;37377;45.186;9.778;2023-03-21T14:41:30;46.60;;;36.08;;
51292;SDS011;37377;45.186;9.778;2023-03-21T14:44:14;48.72;;;35.90;;
51292;SDS011;37377;45.186;9.778;2023-03-21T14:46:42;49.55;;;34.75;;
51292;SDS011;37377;45.186;9.778;2023-03-21T14:49:20;46.15;;;32.88;;
51292;SDS011;37377;45.186;9.778;2023-03-21T14:51:49;48.30;;;34.80;;
51292;SDS011;37377;45.186;9.778;2023-03-21T14:54:16;48.13;;;36.53;;
51292;SDS011;37377;45.186;9.778;2023-03-21T14:56:48;67.63;;;36.40;;
51292;SDS011;37377;45.186;9.778;2023-03-21T14:59:16;51.15;;;35.97;;
51292;SDS011;37377;45.186;9.778;2023-03-21T15:01:44;42.25;;;34.25;;
51292;SDS011;37377;45.186;9.778;2023-03-21T15:04:12;49.45;;;35.22;;
51292;SDS011;37377;45.186;9.778;2023-03-21T15:06:53;48.60;;;35.08;;
51292;SDS011;37377;45.186;9.778;2023-03-21T15:09:21;50.05;;;37.75;;
51292;SDS011;37377;45.186;9.778;2023-03-21T15:11:50;53.03;;;36.47;;
51292;SDS011;37377;45.186;9.778;2023-03-21T15:14:18;61.10;;;36.58;;
51292;SDS011;37377;45.186;9.778;2023-03-21T15:16:46;55.08;;;36.17;;
51292;SDS011;37377;45.186;9.778;2023-03-21T15:19:14;45.83;;;34.25;;
51292;SDS011;37377;45.186;9.778;2023-03-21T15:21:46;45.30;;;35.28;;
51292;SDS011;37377;45.186;9.778;2023-03-21T15:24:16;47.65;;;34.72;;
51292;SDS011;37377;45.186;9.778;2023-03-21T15:26:45;47.55;;;35.00;;
51292;SDS011;37377;45.186;9.778;2023-03-21T15:29:14;47.22;;;35.45;;
51292;SDS011;37377;45.186;9.778;2023-03-21T15:31:42;53.92;;;35.00;;
51292;SDS011;37377;45.186;9.778;2023-03-21T15:34:26;51.40;;;36.70;;
51292;SDS011;37377;45.186;9.778;2023-03-21T15:36:55;48.63;;;35.85;;
51292;SDS011;37377;45.186;9.778;2023-03-21T15:39:23;51.22;;;35.25;;
51292;SDS011;37377;45.186;9.778;2023-03-21T15:42:00;45.67;;;34.22;;
51292;SDS011;37377;45.186;9.778;2023-03-21T15:44:28;47.33;;;35.20;;
51292;SDS011;37377;45.186;9.778;2023-03-21T15:46:54;59.78;;;36.63;;
51292;SDS011;37377;45.186;9.778;2023-03-21T15:49:29;50.72;;;35.67;;
51292;SDS011;37377;45.186;9.778;2023-03-21T15:54:33;50.03;;;37.10;;
51292;SDS011;37377;45.186;9.778;2023-03-21T15:57:04;58.00;;;37.33;;
51292;SDS011;37377;45.186;9.778;2023-03-21T15:59:35;54.97;;;36.22;;
51292;SDS011;37377;45.186;9.778;2023-03-21T16:02:04;52.92;;;36.83;;
51292;SDS011;37377;45.186;9.778;2023-03-21T16:07:25;58.53;;;42.47;;
51292;SDS011;37377;45.186;9.778;2023-03-21T16:09:59;62.80;;;39.22;;
51292;SDS011;37377;45.186;9.778;2023-03-21T16:12:26;52.92;;;39.13;;
51292;SDS011;37377;45.186;9.778;2023-03-21T16:14:53;57.15;;;37.30;;
51292;SDS011;37377;45.186;9.778;2023-03-21T16:17:22;48.78;;;37.35;;
51292;SDS011;37377;45.186;9.778;2023-03-21T16:19:52;69.38;;;38.28;;
51292;SDS011;37377;45.186;9.778;2023-03-21T16:22:19;58.08;;;38.42;;
51292;SDS011;37377;45.186;9.778;2023-03-21T16:24:47;63.28;;;39.83;;
51292;SDS011;37377;45.186;9.778;2023-03-21T16:27:15;60.05;;;37.22;;
51292;SDS011;37377;45.186;9.778;2023-03-21T16:29:43;52.75;;;35.75;;
51292;SDS011;37377;45.186;9.778;2023-03-21T16:32:14;48.30;;;37.38;;
51292;SDS011;37377;45.186;9.778;2023-03-21T16:34:41;59.95;;;43.47;;
51292;SDS011;37377;45.186;9.778;2023-03-21T16:37:09;55.08;;;38.20;;
51292;SDS011;37377;45.186;9.778;2023-03-21T16:39:37;58.08;;;39.40;;
51292;SDS011;37377;45.186;9.778;2023-03-21T16:42:05;55.60;;;37.90;;
51292;SDS011;37377;45.186;9.778;2023-03-21T16:44:32;50.25;;;38.90;;
51292;SDS011;37377;45.186;9.778;2023-03-21T16:46:59;53.08;;;37.35;;
51292;SDS011;37377;45.186;9.778;2023-03-21T16:49:27;54.35;;;37.05;;
51292;SDS011;37377;45.186;9.778;2023-03-21T16:51:54;49.72;;;38.80;;
51292;SDS011;37377;45.186;9.778;2023-03-21T16:54:22;60.67;;;38.40;;
51292;SDS011;37377;45.186;9.778;2023-03-21T16:56:49;70.45;;;38.22;;